sensor_id;sensor_type;location;lat;lon;timestamp;temperature;humidity
27922;DHT22;15261;50.356;10.340;2024-02-23T00:01:30;8.80;99.90
27922;DHT22;15261;50.356;10.340;2024-02-23T00:03:56;8.70;99.90
27922;DHT22;15261;50.356;10.340;2024-02-23T00:06:21;8.70;99.90
27922;DHT22;15261;50.356;10.340;2024-02-23T00:08:52;8.60;99.90
27922;DHT22;15261;50.356;10.340;2024-02-23T00:11:23;8.60;99.90
27922;DHT22;15261;50.356;10.340;2024-02-23T00:13:49;8.60;99.90
27922;DHT22;15261;50.356;10.340;2024-02-23T00:16:14;8.60;99.90
27922;DHT22;15261;50.356;10.340;2024-02-23T00:18:40;8.60;99.90
27922;DHT22;15261;50.356;10.340;2024-02-23T00:21:05;8.60;99.90
27922;DHT22;15261;50.356;10.340;2024-02-23T00:23:31;8.50;99.90
27922;DHT22;15261;50.356;10.340;2024-02-23T00:25:56;8.50;99.90
27922;DHT22;15261;50.356;10.340;2024-02-23T00:28:22;8.50;99.90
27922;DHT22;15261;50.356;10.340;2024-02-23T00:30:47;8.40;99.90
27922;DHT22;15261;50.356;10.340;2024-02-23T00:33:14;8.40;99.90
27922;DHT22;15261;50.356;10.340;2024-02-23T00:35:40;8.30;99.90
27922;DHT22;15261;50.356;10.340;2024-02-23T00:38:05;8.30;99.90
27922;DHT22;15261;50.356;10.340;2024-02-23T00:40:32;8.30;99.90
27922;DHT22;15261;50.356;10.340;2024-02-23T00:42:58;8.10;99.90
27922;DHT22;15261;50.356;10.340;2024-02-23T00:45:25;8.10;99.90
27922;DHT22;15261;50.356;10.340;2024-02-23T00:47:51;8.10;99.90
27922;DHT22;15261;50.356;10.340;2024-02-23T00:50:16;8.10;99.90
27922;DHT22;15261;50.356;10.340;2024-02-23T00:52:42;8.00;99.90
27922;DHT22;15261;50.356;10.340;2024-02-23T00:55:08;7.90;99.90
27922;DHT22;15261;50.356;10.340;2024-02-23T00:57:34;7.90;99.90
27922;DHT22;15261;50.356;10.340;2024-02-23T01:00:01;7.80;99.90
27922;DHT22;15261;50.356;10.340;2024-02-23T01:02:28;7.80;99.90
27922;DHT22;15261;50.356;10.340;2024-02-23T01:04:55;7.80;99.90
27922;DHT22;15261;50.356;10.340;2024-02-23T01:07:22;7.70;99.90
27922;DHT22;15261;50.356;10.340;2024-02-23T01:09:48;7.70;99.90
27922;DHT22;15261;50.356;10.340;2024-02-23T01:12:16;7.70;99.90
27922;DHT22;15261;50.356;10.340;2024-02-23T01:14:42;7.70;99.90
27922;DHT22;15261;50.356;10.340;2024-02-23T01:17:10;7.70;99.90
27922;DHT22;15261;50.356;10.340;2024-02-23T01:19:35;7.70;99.90
27922;DHT22;15261;50.356;10.340;2024-02-23T01:22:01;7.70;99.90
27922;DHT22;15261;50.356;10.340;2024-02-23T01:24:27;7.80;99.90
27922;DHT22;15261;50.356;10.340;2024-02-23T01:26:55;7.80;99.90
27922;DHT22;15261;50.356;10.340;2024-02-23T01:29:21;7.70;99.90
27922;DHT22;15261;50.356;10.340;2024-02-23T01:31:48;7.80;99.90
27922;DHT22;15261;50.356;10.340;2024-02-23T01:34:13;7.70;99.90
27922;DHT22;15261;50.356;10.340;2024-02-23T01:36:39;7.80;99.90
27922;DHT22;15261;50.356;10.340;2024-02-23T01:39:04;7.80;99.90
27922;DHT22;15261;50.356;10.340;2024-02-23T01:41:30;7.70;99.90
27922;DHT22;15261;50.356;10.340;2024-02-23T01:43:56;7.70;99.90
27922;DHT22;15261;50.356;10.340;2024-02-23T01:46:21;7.60;99.90
27922;DHT22;15261;50.356;10.340;2024-02-23T01:48:47;7.60;99.90
27922;DHT22;15261;50.356;10.340;2024-02-23T01:51:13;7.50;99.90
27922;DHT22;15261;50.356;10.340;2024-02-23T01:53:39;7.50;99.90
27922;DHT22;15261;50.356;10.340;2024-02-23T01:56:08;7.40;99.90
27922;DHT22;15261;50.356;10.340;2024-02-23T01:58:35;7.40;99.90
27922;DHT22;15261;50.356;10.340;2024-02-23T02:19:14;6.80;99.90
27922;DHT22;15261;50.356;10.340;2024-02-23T02:21:40;6.80;99.90
27922;DHT22;15261;50.356;10.340;2024-02-23T02:24:06;6.80;99.90
27922;DHT22;15261;50.356;10.340;2024-02-23T02:26:32;6.80;99.90
27922;DHT22;15261;50.356;10.340;2024-02-23T02:28:58;6.80;99.90
27922;DHT22;15261;50.356;10.340;2024-02-23T02:31:23;6.80;99.90
27922;DHT22;15261;50.356;10.340;2024-02-23T02:33:49;6.80;99.90
27922;DHT22;15261;50.356;10.340;2024-02-23T02:36:14;6.80;99.90
27922;DHT22;15261;50.356;10.340;2024-02-23T02:38:40;6.80;99.90
27922;DHT22;15261;50.356;10.340;2024-02-23T02:41:05;6.80;99.90
27922;DHT22;15261;50.356;10.340;2024-02-23T02:43:32;6.80;99.90
27922;DHT22;15261;50.356;10.340;2024-02-23T02:45:57;6.80;99.90
27922;DHT22;15261;50.356;10.340;2024-02-23T02:48:23;6.70;99.90
27922;DHT22;15261;50.356;10.340;2024-02-23T02:50:49;6.70;99.90
27922;DHT22;15261;50.356;10.340;2024-02-23T02:53:15;6.70;99.90
27922;DHT22;15261;50.356;10.340;2024-02-23T02:55:44;6.70;99.90
27922;DHT22;15261;50.356;10.340;2024-02-23T02:58:11;6.70;99.90
27922;DHT22;15261;50.356;10.340;2024-02-23T03:00:38;6.70;99.90
27922;DHT22;15261;50.356;10.340;2024-02-23T03:03:04;6.70;99.90
27922;DHT22;15261;50.356;10.340;2024-02-23T03:05:29;6.70;99.90
27922;DHT22;15261;50.356;10.340;2024-02-23T03:07:55;6.70;99.90
27922;DHT22;15261;50.356;10.340;2024-02-23T03:10:20;6.60;99.90
27922;DHT22;15261;50.356;10.340;2024-02-23T03:12:46;6.60;99.90
27922;DHT22;15261;50.356;10.340;2024-02-23T03:15:12;6.60;99.90
27922;DHT22;15261;50.356;10.340;2024-02-23T03:17:38;6.50;99.90
27922;DHT22;15261;50.356;10.340;2024-02-23T03:20:04;6.50;99.90
27922;DHT22;15261;50.356;10.340;2024-02-23T03:22:36;6.50;99.90
27922;DHT22;15261;50.356;10.340;2024-02-23T03:25:03;6.50;99.90
27922;DHT22;15261;50.356;10.340;2024-02-23T03:27:38;6.50;99.90
27922;DHT22;15261;50.356;10.340;2024-02-23T03:30:04;6.40;99.90
27922;DHT22;15261;50.356;10.340;2024-02-23T03:32:30;6.40;99.90
27922;DHT22;15261;50.356;10.340;2024-02-23T03:35:02;6.40;99.90
27922;DHT22;15261;50.356;10.340;2024-02-23T03:37:28;6.40;99.90
27922;DHT22;15261;50.356;10.340;2024-02-23T03:39:53;6.40;99.90
27922;DHT22;15261;50.356;10.340;2024-02-23T03:42:19;6.30;99.90
27922;DHT22;15261;50.356;10.340;2024-02-23T03:44:44;6.40;99.90
27922;DHT22;15261;50.356;10.340;2024-02-23T03:47:10;6.40;99.90
27922;DHT22;15261;50.356;10.340;2024-02-23T03:49:35;6.40;99.90
27922;DHT22;15261;50.356;10.340;2024-02-23T03:52:01;6.40;99.90
27922;DHT22;15261;50.356;10.340;2024-02-23T03:54:27;6.50;99.90
27922;DHT22;15261;50.356;10.340;2024-02-23T03:56:52;6.50;99.90
27922;DHT22;15261;50.356;10.340;2024-02-23T03:59:18;6.60;99.90
27922;DHT22;15261;50.356;10.340;2024-02-23T04:01:43;6.60;99.90
27922;DHT22;15261;50.356;10.340;2024-02-23T04:04:09;6.70;99.90
27922;DHT22;15261;50.356;10.340;2024-02-23T04:06:35;6.70;99.90
27922;DHT22;15261;50.356;10.340;2024-02-23T04:09:01;6.80;99.90
27922;DHT22;15261;50.356;10.340;2024-02-23T04:11:26;6.80;99.90
27922;DHT22;15261;50.356;10.340;2024-02-23T04:13:52;6.80;99.90
27922;DHT22;15261;50.356;10.340;2024-02-23T04:16:17;6.70;99.90
27922;DHT22;15261;50.356;10.340;2024-02-23T04:18:43;6.60;99.90
27922;DHT22;15261;50.356;10.340;2024-02-23T04:21:08;6.50;99.90
27922;DHT22;15261;50.356;10.340;2024-02-23T04:23:34;6.30;99.90
27922;DHT22;15261;50.356;10.340;2024-02-23T04:25:59;6.20;99.90
27922;DHT22;15261;50.356;10.340;2024-02-23T04:28:25;6.10;99.90
27922;DHT22;15261;50.356;10.340;2024-02-23T04:30:52;6.00;99.90
27922;DHT22;15261;50.356;10.340;2024-02-23T04:33:17;6.00;99.90
27922;DHT22;15261;50.356;10.340;2024-02-23T04:35:43;5.90;99.90
27922;DHT22;15261;50.356;10.340;2024-02-23T04:38:08;5.80;99.90
27922;DHT22;15261;50.356;10.340;2024-02-23T04:40:34;5.70;99.90
27922;DHT22;15261;50.356;10.340;2024-02-23T04:42:59;5.60;99.90
27922;DHT22;15261;50.356;10.340;2024-02-23T04:45:25;5.60;99.90
27922;DHT22;15261;50.356;10.340;2024-02-23T04:47:50;5.60;99.90
27922;DHT22;15261;50.356;10.340;2024-02-23T04:50:16;5.50;99.90
27922;DHT22;15261;50.356;10.340;2024-02-23T04:52:41;5.40;99.90
27922;DHT22;15261;50.356;10.340;2024-02-23T04:55:07;5.30;99.90
27922;DHT22;15261;50.356;10.340;2024-02-23T04:57:33;5.30;99.90
27922;DHT22;15261;50.356;10.340;2024-02-23T04:59:58;5.40;99.90
27922;DHT22;15261;50.356;10.340;2024-02-23T05:02:24;5.50;99.90
27922;DHT22;15261;50.356;10.340;2024-02-23T05:04:49;5.60;99.90
27922;DHT22;15261;50.356;10.340;2024-02-23T05:07:15;5.60;99.90
27922;DHT22;15261;50.356;10.340;2024-02-23T05:09:40;5.60;99.90
27922;DHT22;15261;50.356;10.340;2024-02-23T05:12:07;5.70;99.90
27922;DHT22;15261;50.356;10.340;2024-02-23T05:14:33;5.70;99.90
27922;DHT22;15261;50.356;10.340;2024-02-23T05:16:59;5.70;99.90
27922;DHT22;15261;50.356;10.340;2024-02-23T05:19:24;5.60;99.90
27922;DHT22;15261;50.356;10.340;2024-02-23T05:21:50;5.50;99.90
27922;DHT22;15261;50.356;10.340;2024-02-23T05:24:16;5.40;99.90
27922;DHT22;15261;50.356;10.340;2024-02-23T05:26:41;5.40;99.90
27922;DHT22;15261;50.356;10.340;2024-02-23T05:29:08;5.40;99.90
27922;DHT22;15261;50.356;10.340;2024-02-23T05:31:47;5.30;99.90
27922;DHT22;15261;50.356;10.340;2024-02-23T05:34:13;5.20;99.90
27922;DHT22;15261;50.356;10.340;2024-02-23T05:36:39;5.30;99.90
27922;DHT22;15261;50.356;10.340;2024-02-23T05:39:05;5.30;99.90
27922;DHT22;15261;50.356;10.340;2024-02-23T05:41:33;5.30;99.90
27922;DHT22;15261;50.356;10.340;2024-02-23T05:43:58;5.40;99.90
27922;DHT22;15261;50.356;10.340;2024-02-23T05:46:24;5.40;99.90
27922;DHT22;15261;50.356;10.340;2024-02-23T05:48:49;5.40;99.90
27922;DHT22;15261;50.356;10.340;2024-02-23T05:51:15;5.30;99.90
27922;DHT22;15261;50.356;10.340;2024-02-23T05:53:41;5.30;99.90
27922;DHT22;15261;50.356;10.340;2024-02-23T05:56:06;5.30;99.90
27922;DHT22;15261;50.356;10.340;2024-02-23T05:58:32;5.20;99.90
27922;DHT22;15261;50.356;10.340;2024-02-23T06:00:58;5.10;99.90
27922;DHT22;15261;50.356;10.340;2024-02-23T06:03:24;5.00;99.90
27922;DHT22;15261;50.356;10.340;2024-02-23T06:05:50;5.10;99.90
27922;DHT22;15261;50.356;10.340;2024-02-23T06:08:15;5.00;99.90
27922;DHT22;15261;50.356;10.340;2024-02-23T06:10:41;5.00;99.90
27922;DHT22;15261;50.356;10.340;2024-02-23T06:13:08;5.00;99.90
27922;DHT22;15261;50.356;10.340;2024-02-23T06:15:34;4.90;99.90
27922;DHT22;15261;50.356;10.340;2024-02-23T06:17:59;4.80;99.90
27922;DHT22;15261;50.356;10.340;2024-02-23T06:20:25;4.80;99.90
27922;DHT22;15261;50.356;10.340;2024-02-23T06:22:50;5.00;99.90
27922;DHT22;15261;50.356;10.340;2024-02-23T06:25:16;5.00;99.90
27922;DHT22;15261;50.356;10.340;2024-02-23T06:27:41;5.10;99.90
27922;DHT22;15261;50.356;10.340;2024-02-23T06:30:08;5.40;99.90
27922;DHT22;15261;50.356;10.340;2024-02-23T06:32:33;5.40;99.90
27922;DHT22;15261;50.356;10.340;2024-02-23T06:34:59;5.50;99.90
27922;DHT22;15261;50.356;10.340;2024-02-23T06:37:25;5.40;99.90
27922;DHT22;15261;50.356;10.340;2024-02-23T06:39:50;5.50;99.90
27922;DHT22;15261;50.356;10.340;2024-02-23T06:42:20;5.50;99.90
27922;DHT22;15261;50.356;10.340;2024-02-23T06:44:46;5.60;99.90
27922;DHT22;15261;50.356;10.340;2024-02-23T06:47:11;5.60;99.90
27922;DHT22;15261;50.356;10.340;2024-02-23T06:49:40;5.60;99.90
27922;DHT22;15261;50.356;10.340;2024-02-23T06:52:06;5.50;99.90
27922;DHT22;15261;50.356;10.340;2024-02-23T06:54:31;5.40;99.90
27922;DHT22;15261;50.356;10.340;2024-02-23T06:56:57;5.40;99.90
27922;DHT22;15261;50.356;10.340;2024-02-23T06:59:23;5.50;99.90
27922;DHT22;15261;50.356;10.340;2024-02-23T07:01:50;5.50;99.90
27922;DHT22;15261;50.356;10.340;2024-02-23T07:04:16;5.40;99.90
27922;DHT22;15261;50.356;10.340;2024-02-23T07:06:41;5.30;99.90
27922;DHT22;15261;50.356;10.340;2024-02-23T07:09:07;5.30;99.90
27922;DHT22;15261;50.356;10.340;2024-02-23T07:11:33;5.20;99.90
27922;DHT22;15261;50.356;10.340;2024-02-23T07:13:59;5.20;99.90
27922;DHT22;15261;50.356;10.340;2024-02-23T07:16:24;5.20;99.90
27922;DHT22;15261;50.356;10.340;2024-02-23T07:18:50;5.20;99.90
27922;DHT22;15261;50.356;10.340;2024-02-23T07:21:18;5.30;99.90
27922;DHT22;15261;50.356;10.340;2024-02-23T07:23:44;5.20;99.90
27922;DHT22;15261;50.356;10.340;2024-02-23T07:26:09;5.20;99.90
27922;DHT22;15261;50.356;10.340;2024-02-23T07:28:35;5.10;99.90
27922;DHT22;15261;50.356;10.340;2024-02-23T07:31:01;5.10;99.90
27922;DHT22;15261;50.356;10.340;2024-02-23T07:33:26;5.10;99.90
27922;DHT22;15261;50.356;10.340;2024-02-23T07:35:52;5.00;99.90
27922;DHT22;15261;50.356;10.340;2024-02-23T07:38:17;5.00;99.90
27922;DHT22;15261;50.356;10.340;2024-02-23T07:40:45;4.90;99.90
27922;DHT22;15261;50.356;10.340;2024-02-23T07:43:11;4.90;99.90
27922;DHT22;15261;50.356;10.340;2024-02-23T07:45:37;4.90;99.90
27922;DHT22;15261;50.356;10.340;2024-02-23T07:48:03;4.90;99.90
27922;DHT22;15261;50.356;10.340;2024-02-23T07:50:29;4.90;99.90
27922;DHT22;15261;50.356;10.340;2024-02-23T07:52:54;5.00;99.90
27922;DHT22;15261;50.356;10.340;2024-02-23T07:55:20;5.00;99.90
27922;DHT22;15261;50.356;10.340;2024-02-23T07:57:46;5.00;99.90
27922;DHT22;15261;50.356;10.340;2024-02-23T08:00:12;5.10;99.90
27922;DHT22;15261;50.356;10.340;2024-02-23T08:02:38;5.20;99.90
27922;DHT22;15261;50.356;10.340;2024-02-23T08:05:04;5.40;99.90
27922;DHT22;15261;50.356;10.340;2024-02-23T08:07:29;5.50;99.90
27922;DHT22;15261;50.356;10.340;2024-02-23T08:09:56;5.60;99.90
27922;DHT22;15261;50.356;10.340;2024-02-23T08:12:22;5.80;99.90
27922;DHT22;15261;50.356;10.340;2024-02-23T08:14:48;6.00;99.90
27922;DHT22;15261;50.356;10.340;2024-02-23T08:17:14;6.20;99.90
27922;DHT22;15261;50.356;10.340;2024-02-23T08:19:40;6.30;99.90
27922;DHT22;15261;50.356;10.340;2024-02-23T08:22:06;6.50;99.90
27922;DHT22;15261;50.356;10.340;2024-02-23T08:24:31;6.50;99.90
27922;DHT22;15261;50.356;10.340;2024-02-23T08:26:57;6.60;99.90
27922;DHT22;15261;50.356;10.340;2024-02-23T08:29:22;6.70;99.90
27922;DHT22;15261;50.356;10.340;2024-02-23T08:31:48;6.70;99.90
27922;DHT22;15261;50.356;10.340;2024-02-23T08:34:14;6.80;99.90
27922;DHT22;15261;50.356;10.340;2024-02-23T08:36:40;6.80;99.90
27922;DHT22;15261;50.356;10.340;2024-02-23T08:39:05;7.00;99.90
27922;DHT22;15261;50.356;10.340;2024-02-23T08:41:31;7.10;99.90
27922;DHT22;15261;50.356;10.340;2024-02-23T08:43:56;7.30;99.90
27922;DHT22;15261;50.356;10.340;2024-02-23T08:46:22;7.40;99.90
27922;DHT22;15261;50.356;10.340;2024-02-23T08:48:48;7.40;99.90
27922;DHT22;15261;50.356;10.340;2024-02-23T08:51:13;7.40;99.90
27922;DHT22;15261;50.356;10.340;2024-02-23T08:53:39;7.60;99.90
27922;DHT22;15261;50.356;10.340;2024-02-23T08:56:06;7.70;99.90
27922;DHT22;15261;50.356;10.340;2024-02-23T08:58:32;7.80;99.90
27922;DHT22;15261;50.356;10.340;2024-02-23T09:00:58;8.00;99.90
27922;DHT22;15261;50.356;10.340;2024-02-23T09:03:23;8.10;99.90
27922;DHT22;15261;50.356;10.340;2024-02-23T09:05:49;8.10;99.90
27922;DHT22;15261;50.356;10.340;2024-02-23T09:08:15;7.90;99.90
27922;DHT22;15261;50.356;10.340;2024-02-23T09:10:41;7.80;99.90
27922;DHT22;15261;50.356;10.340;2024-02-23T09:13:06;7.80;99.90
27922;DHT22;15261;50.356;10.340;2024-02-23T09:15:32;7.80;99.90
27922;DHT22;15261;50.356;10.340;2024-02-23T09:17:57;7.80;99.90
27922;DHT22;15261;50.356;10.340;2024-02-23T09:20:23;7.70;99.90
27922;DHT22;15261;50.356;10.340;2024-02-23T09:22:49;7.60;99.90
27922;DHT22;15261;50.356;10.340;2024-02-23T09:25:14;7.70;99.90
27922;DHT22;15261;50.356;10.340;2024-02-23T09:27:40;7.60;99.90
27922;DHT22;15261;50.356;10.340;2024-02-23T09:30:13;7.60;99.90
27922;DHT22;15261;50.356;10.340;2024-02-23T09:32:39;7.60;99.90
27922;DHT22;15261;50.356;10.340;2024-02-23T09:35:05;7.60;99.90
27922;DHT22;15261;50.356;10.340;2024-02-23T09:37:32;7.60;99.90
27922;DHT22;15261;50.356;10.340;2024-02-23T09:39:57;7.60;99.90
27922;DHT22;15261;50.356;10.340;2024-02-23T09:42:23;7.70;99.90
27922;DHT22;15261;50.356;10.340;2024-02-23T09:44:59;7.70;99.90
27922;DHT22;15261;50.356;10.340;2024-02-23T09:47:28;7.90;99.90
27922;DHT22;15261;50.356;10.340;2024-02-23T09:49:55;7.90;99.90
27922;DHT22;15261;50.356;10.340;2024-02-23T09:52:21;7.80;99.90
27922;DHT22;15261;50.356;10.340;2024-02-23T09:54:48;7.90;99.90
27922;DHT22;15261;50.356;10.340;2024-02-23T09:57:14;8.10;99.90
27922;DHT22;15261;50.356;10.340;2024-02-23T09:59:41;8.20;99.90
27922;DHT22;15261;50.356;10.340;2024-02-23T10:02:08;8.20;99.90
27922;DHT22;15261;50.356;10.340;2024-02-23T10:04:38;8.00;99.90
27922;DHT22;15261;50.356;10.340;2024-02-23T10:07:05;8.00;99.90
27922;DHT22;15261;50.356;10.340;2024-02-23T10:09:31;8.00;99.90
27922;DHT22;15261;50.356;10.340;2024-02-23T10:11:57;8.00;99.90
27922;DHT22;15261;50.356;10.340;2024-02-23T10:14:22;8.00;99.90
27922;DHT22;15261;50.356;10.340;2024-02-23T10:16:48;8.10;99.90
27922;DHT22;15261;50.356;10.340;2024-02-23T10:19:21;8.10;99.90
27922;DHT22;15261;50.356;10.340;2024-02-23T10:21:47;8.10;99.90
27922;DHT22;15261;50.356;10.340;2024-02-23T10:24:15;8.10;99.90
27922;DHT22;15261;50.356;10.340;2024-02-23T10:26:42;8.20;99.90
27922;DHT22;15261;50.356;10.340;2024-02-23T10:29:08;8.30;99.90
27922;DHT22;15261;50.356;10.340;2024-02-23T10:31:36;8.20;99.90
27922;DHT22;15261;50.356;10.340;2024-02-23T10:34:07;8.40;99.90
27922;DHT22;15261;50.356;10.340;2024-02-23T10:36:36;8.30;99.90
27922;DHT22;15261;50.356;10.340;2024-02-23T10:39:05;8.30;99.90
27922;DHT22;15261;50.356;10.340;2024-02-23T10:41:35;8.30;99.90
27922;DHT22;15261;50.356;10.340;2024-02-23T10:44:02;8.20;99.90
27922;DHT22;15261;50.356;10.340;2024-02-23T10:46:30;8.20;99.90
27922;DHT22;15261;50.356;10.340;2024-02-23T10:48:58;8.20;99.90
27922;DHT22;15261;50.356;10.340;2024-02-23T10:51:25;8.40;99.90
27922;DHT22;15261;50.356;10.340;2024-02-23T10:53:52;8.50;99.90
27922;DHT22;15261;50.356;10.340;2024-02-23T10:56:18;8.70;99.90
27922;DHT22;15261;50.356;10.340;2024-02-23T10:58:43;8.90;99.90
27922;DHT22;15261;50.356;10.340;2024-02-23T11:01:10;8.90;99.90
27922;DHT22;15261;50.356;10.340;2024-02-23T11:03:37;8.90;99.90
27922;DHT22;15261;50.356;10.340;2024-02-23T11:06:06;9.00;99.90
27922;DHT22;15261;50.356;10.340;2024-02-23T11:08:35;8.80;99.90
27922;DHT22;15261;50.356;10.340;2024-02-23T11:11:11;8.50;99.90
27922;DHT22;15261;50.356;10.340;2024-02-23T11:13:38;8.50;99.90
27922;DHT22;15261;50.356;10.340;2024-02-23T11:16:07;8.50;99.90
27922;DHT22;15261;50.356;10.340;2024-02-23T11:18:39;8.60;99.90
27922;DHT22;15261;50.356;10.340;2024-02-23T11:21:05;8.70;99.90
27922;DHT22;15261;50.356;10.340;2024-02-23T11:23:47;8.90;99.90
27922;DHT22;15261;50.356;10.340;2024-02-23T11:26:14;9.10;99.90
27922;DHT22;15261;50.356;10.340;2024-02-23T11:28:50;9.10;99.90
27922;DHT22;15261;50.356;10.340;2024-02-23T11:31:29;9.00;99.90
27922;DHT22;15261;50.356;10.340;2024-02-23T11:33:56;9.10;99.90
27922;DHT22;15261;50.356;10.340;2024-02-23T11:38:53;9.10;99.90
27922;DHT22;15261;50.356;10.340;2024-02-23T11:41:21;9.20;99.90
27922;DHT22;15261;50.356;10.340;2024-02-23T11:43:48;9.30;99.90
27922;DHT22;15261;50.356;10.340;2024-02-23T11:46:15;9.40;99.90
27922;DHT22;15261;50.356;10.340;2024-02-23T11:48:42;9.30;99.90
27922;DHT22;15261;50.356;10.340;2024-02-23T11:51:09;9.20;99.90
27922;DHT22;15261;50.356;10.340;2024-02-23T11:53:36;9.10;99.90
27922;DHT22;15261;50.356;10.340;2024-02-23T11:56:02;9.20;99.90
27922;DHT22;15261;50.356;10.340;2024-02-23T11:58:29;9.00;99.90
27922;DHT22;15261;50.356;10.340;2024-02-23T12:00:54;8.90;99.90
27922;DHT22;15261;50.356;10.340;2024-02-23T12:03:20;9.00;99.90
27922;DHT22;15261;50.356;10.340;2024-02-23T12:05:49;9.00;99.90
27922;DHT22;15261;50.356;10.340;2024-02-23T12:08:15;9.00;99.90
27922;DHT22;15261;50.356;10.340;2024-02-23T12:10:41;9.00;99.90
27922;DHT22;15261;50.356;10.340;2024-02-23T12:13:07;9.10;99.90
27922;DHT22;15261;50.356;10.340;2024-02-23T12:15:33;9.20;99.90
27922;DHT22;15261;50.356;10.340;2024-02-23T12:17:59;9.30;99.90
27922;DHT22;15261;50.356;10.340;2024-02-23T12:20:27;9.20;99.90
27922;DHT22;15261;50.356;10.340;2024-02-23T12:22:54;9.30;99.90
27922;DHT22;15261;50.356;10.340;2024-02-23T12:25:22;9.20;99.90
27922;DHT22;15261;50.356;10.340;2024-02-23T12:27:54;9.20;99.90
27922;DHT22;15261;50.356;10.340;2024-02-23T12:30:19;9.20;99.90
27922;DHT22;15261;50.356;10.340;2024-02-23T12:32:45;9.30;99.90
27922;DHT22;15261;50.356;10.340;2024-02-23T12:35:11;9.30;99.90
27922;DHT22;15261;50.356;10.340;2024-02-23T12:37:37;9.40;99.90
27922;DHT22;15261;50.356;10.340;2024-02-23T12:40:03;9.50;99.90
27922;DHT22;15261;50.356;10.340;2024-02-23T12:42:28;9.30;99.90
27922;DHT22;15261;50.356;10.340;2024-02-23T12:44:54;9.20;99.90
27922;DHT22;15261;50.356;10.340;2024-02-23T12:47:20;9.10;99.90
27922;DHT22;15261;50.356;10.340;2024-02-23T12:49:45;9.10;99.90
27922;DHT22;15261;50.356;10.340;2024-02-23T12:52:12;9.00;99.90
27922;DHT22;15261;50.356;10.340;2024-02-23T12:54:38;9.10;99.90
27922;DHT22;15261;50.356;10.340;2024-02-23T12:57:03;8.90;99.90
27922;DHT22;15261;50.356;10.340;2024-02-23T12:59:29;8.90;99.90
27922;DHT22;15261;50.356;10.340;2024-02-23T13:01:54;8.80;99.90
27922;DHT22;15261;50.356;10.340;2024-02-23T13:04:20;8.90;99.90
27922;DHT22;15261;50.356;10.340;2024-02-23T13:06:46;8.90;99.90
27922;DHT22;15261;50.356;10.340;2024-02-23T13:09:12;8.90;99.90
27922;DHT22;15261;50.356;10.340;2024-02-23T13:11:40;8.90;99.90
27922;DHT22;15261;50.356;10.340;2024-02-23T13:14:06;9.00;99.90
27922;DHT22;15261;50.356;10.340;2024-02-23T13:16:31;9.10;99.90
27922;DHT22;15261;50.356;10.340;2024-02-23T13:18:57;9.20;99.90
27922;DHT22;15261;50.356;10.340;2024-02-23T13:21:23;9.30;99.90
27922;DHT22;15261;50.356;10.340;2024-02-23T13:23:49;9.30;99.90
27922;DHT22;15261;50.356;10.340;2024-02-23T13:26:15;9.20;99.90
27922;DHT22;15261;50.356;10.340;2024-02-23T13:28:44;9.30;99.90
27922;DHT22;15261;50.356;10.340;2024-02-23T13:31:10;9.30;99.90
27922;DHT22;15261;50.356;10.340;2024-02-23T13:33:35;9.30;99.90
27922;DHT22;15261;50.356;10.340;2024-02-23T13:36:01;9.20;99.90
27922;DHT22;15261;50.356;10.340;2024-02-23T13:38:27;9.30;99.90
27922;DHT22;15261;50.356;10.340;2024-02-23T13:40:55;9.00;99.90
27922;DHT22;15261;50.356;10.340;2024-02-23T13:43:21;9.00;99.90
27922;DHT22;15261;50.356;10.340;2024-02-23T13:45:52;8.90;99.90
27922;DHT22;15261;50.356;10.340;2024-02-23T13:48:18;8.70;99.90
27922;DHT22;15261;50.356;10.340;2024-02-23T13:50:47;8.70;99.90
27922;DHT22;15261;50.356;10.340;2024-02-23T13:53:13;8.70;99.90
27922;DHT22;15261;50.356;10.340;2024-02-23T13:55:39;8.80;99.90
27922;DHT22;15261;50.356;10.340;2024-02-23T13:58:06;8.80;99.90
27922;DHT22;15261;50.356;10.340;2024-02-23T14:00:32;8.90;99.70
27922;DHT22;15261;50.356;10.340;2024-02-23T14:02:57;9.00;99.90
27922;DHT22;15261;50.356;10.340;2024-02-23T14:05:23;9.00;99.90
27922;DHT22;15261;50.356;10.340;2024-02-23T14:07:51;9.10;99.90
27922;DHT22;15261;50.356;10.340;2024-02-23T14:10:17;9.10;99.40
27922;DHT22;15261;50.356;10.340;2024-02-23T14:12:43;9.10;99.80
27922;DHT22;15261;50.356;10.340;2024-02-23T14:15:08;9.10;99.60
27922;DHT22;15261;50.356;10.340;2024-02-23T14:17:35;9.10;99.20
27922;DHT22;15261;50.356;10.340;2024-02-23T14:20:04;9.20;99.80
27922;DHT22;15261;50.356;10.340;2024-02-23T14:22:32;9.30;99.30
27922;DHT22;15261;50.356;10.340;2024-02-23T14:24:58;9.30;99.20
27922;DHT22;15261;50.356;10.340;2024-02-23T14:27:24;9.20;99.60
27922;DHT22;15261;50.356;10.340;2024-02-23T14:29:50;9.20;99.40
27922;DHT22;15261;50.356;10.340;2024-02-23T14:32:17;9.20;99.40
27922;DHT22;15261;50.356;10.340;2024-02-23T14:34:43;9.10;99.30
27922;DHT22;15261;50.356;10.340;2024-02-23T14:37:08;9.10;99.40
27922;DHT22;15261;50.356;10.340;2024-02-23T14:39:34;9.10;99.40
27922;DHT22;15261;50.356;10.340;2024-02-23T14:42:00;9.20;99.90
27922;DHT22;15261;50.356;10.340;2024-02-23T14:44:26;9.10;99.70
27922;DHT22;15261;50.356;10.340;2024-02-23T14:46:52;9.10;99.30
27922;DHT22;15261;50.356;10.340;2024-02-23T14:49:18;8.90;99.60
27922;DHT22;15261;50.356;10.340;2024-02-23T14:51:44;8.90;99.80
27922;DHT22;15261;50.356;10.340;2024-02-23T14:54:11;8.90;99.90
27922;DHT22;15261;50.356;10.340;2024-02-23T14:56:37;8.80;99.90
27922;DHT22;15261;50.356;10.340;2024-02-23T14:59:03;8.70;99.90
27922;DHT22;15261;50.356;10.340;2024-02-23T15:01:28;8.60;99.90
27922;DHT22;15261;50.356;10.340;2024-02-23T15:07:36;8.60;99.90
27922;DHT22;15261;50.356;10.340;2024-02-23T15:10:03;8.40;99.90
27922;DHT22;15261;50.356;10.340;2024-02-23T15:12:34;8.30;99.90
27922;DHT22;15261;50.356;10.340;2024-02-23T15:15:00;8.10;99.90
27922;DHT22;15261;50.356;10.340;2024-02-23T15:17:26;7.90;99.90
27922;DHT22;15261;50.356;10.340;2024-02-23T15:19:51;7.80;99.90
27922;DHT22;15261;50.356;10.340;2024-02-23T15:22:21;7.70;99.90
27922;DHT22;15261;50.356;10.340;2024-02-23T15:24:46;7.60;99.90
27922;DHT22;15261;50.356;10.340;2024-02-23T15:27:21;7.70;99.90
27922;DHT22;15261;50.356;10.340;2024-02-23T15:29:46;7.60;99.90
27922;DHT22;15261;50.356;10.340;2024-02-23T15:35:29;7.60;99.90
27922;DHT22;15261;50.356;10.340;2024-02-23T15:38:01;7.60;99.90
27922;DHT22;15261;50.356;10.340;2024-02-23T15:43:31;7.60;99.90
27922;DHT22;15261;50.356;10.340;2024-02-23T15:45:57;7.60;99.90
27922;DHT22;15261;50.356;10.340;2024-02-23T15:48:22;7.50;99.90
27922;DHT22;15261;50.356;10.340;2024-02-23T15:50:49;7.40;99.90
27922;DHT22;15261;50.356;10.340;2024-02-23T15:53:16;7.40;99.90
27922;DHT22;15261;50.356;10.340;2024-02-23T15:55:41;7.30;99.90